createdAt,value
2017-10-11T00:01:01.030Z,0
2017-10-11T00:02:13.293Z,0
2017-10-11T00:03:25.526Z,0
2017-10-11T00:04:37.460Z,0
2017-10-11T00:05:49.380Z,0
2017-10-11T00:07:01.625Z,0
2017-10-11T00:08:13.879Z,0
2017-10-11T00:09:26.442Z,0
2017-10-11T00:10:39.012Z,0
2017-10-11T00:11:51.261Z,0
2017-10-11T00:13:03.179Z,0
2017-10-11T00:14:15.749Z,0
2017-10-11T00:15:28.346Z,0
2017-10-11T00:16:40.916Z,0
2017-10-11T00:17:53.511Z,0
2017-10-11T00:19:05.757Z,0
2017-10-11T00:20:17.685Z,0
2017-10-11T00:21:30.249Z,0
2017-10-11T00:22:42.827Z,0
2017-10-11T00:23:55.414Z,0
2017-10-11T00:25:07.660Z,0
2017-10-11T00:26:20.231Z,0
2017-10-11T00:27:32.484Z,0
2017-10-11T00:28:44.747Z,0
2017-10-11T00:29:56.980Z,0
2017-10-11T00:31:09.238Z,0
2017-10-11T00:32:21.473Z,0
2017-10-11T00:33:33.737Z,0
2017-10-11T00:34:46.000Z,0
2017-10-11T00:35:58.574Z,0
2017-10-11T00:37:10.492Z,0
2017-10-11T00:38:22.746Z,0
2017-10-11T00:39:34.671Z,0
2017-10-11T00:40:47.216Z,0
2017-10-11T00:42:00.106Z,0
2017-10-11T00:43:12.353Z,0
2017-10-11T00:44:23.973Z,0
2017-10-11T00:45:36.561Z,0
2017-10-11T00:46:49.133Z,0
2017-10-11T00:48:01.702Z,0
2017-10-11T00:49:13.948Z,0
2017-10-11T00:50:25.879Z,0
2017-10-11T00:51:38.123Z,0
2017-10-11T00:52:50.700Z,0
2017-10-11T00:54:02.981Z,0
2017-10-11T00:55:14.907Z,0
2017-10-11T00:56:26.539Z,0
2017-10-11T00:57:38.781Z,0
2017-10-11T00:58:51.374Z,0
2017-10-11T01:00:03.311Z,0
2017-10-11T01:01:15.913Z,0
2017-10-11T01:02:28.158Z,0
2017-10-11T01:03:41.030Z,0
2017-10-11T01:04:53.598Z,0
2017-10-11T01:06:06.167Z,0
2017-10-11T01:07:18.411Z,0
2017-10-11T01:08:31.008Z,0
2017-10-11T01:09:42.634Z,0
2017-10-11T01:10:55.219Z,0
2017-10-11T01:12:07.467Z,0
2017-10-11T01:13:20.036Z,0
2017-10-11T01:14:32.606Z,0
2017-10-11T01:15:44.534Z,0
2017-10-11T01:16:56.780Z,0
2017-10-11T01:18:09.344Z,0
2017-10-11T01:19:21.914Z,0
2017-10-11T01:20:34.486Z,0
2017-10-11T01:21:47.055Z,0
2017-10-11T01:22:59.290Z,0
2017-10-11T01:24:11.560Z,0
2017-10-11T01:25:24.420Z,0
2017-10-11T01:26:36.664Z,0
2017-10-11T01:27:48.909Z,0
2017-10-11T01:29:01.468Z,0
2017-10-11T01:30:13.727Z,0
2017-10-11T01:31:26.283Z,0
2017-10-11T01:32:38.844Z,0
2017-10-11T01:33:51.412Z,0
2017-10-11T01:35:03.342Z,0
2017-10-11T01:36:15.612Z,0
2017-10-11T01:37:28.185Z,0
2017-10-11T01:38:40.785Z,0
2017-10-11T01:39:53.390Z,0
2017-10-11T01:41:04.996Z,0
2017-10-11T01:42:16.941Z,0
2017-10-11T01:43:28.878Z,0
2017-10-11T01:44:41.448Z,0
2017-10-11T01:45:54.011Z,0
2017-10-11T01:47:06.889Z,0
2017-10-11T01:48:19.468Z,0
2017-10-11T01:49:31.716Z,0
2017-10-11T01:50:43.959Z,0
2017-10-11T01:51:55.573Z,0
2017-10-11T01:53:08.143Z,0
2017-10-11T01:54:19.763Z,0
2017-10-11T01:55:31.998Z,0
2017-10-11T01:56:43.938Z,0
2017-10-11T01:57:56.183Z,0
2017-10-11T01:59:08.121Z,0
2017-10-11T02:00:20.700Z,0
2017-10-11T02:01:33.262Z,0
2017-10-11T02:02:45.533Z,0
2017-10-11T02:03:57.778Z,0
2017-10-11T02:05:09.382Z,0
2017-10-11T02:06:21.645Z,0
2017-10-11T02:07:33.565Z,0
2017-10-11T02:08:45.838Z,0
2017-10-11T02:09:58.090Z,0
2017-10-11T02:11:10.027Z,0
2017-10-11T02:12:21.937Z,0
2017-10-11T02:13:33.877Z,0
2017-10-11T02:14:46.115Z,0
2017-10-11T02:15:58.674Z,0
2017-10-11T02:17:10.289Z,0
2017-10-11T02:18:22.226Z,0
2017-10-11T02:19:34.408Z,0
2017-10-11T02:20:46.693Z,0
2017-10-11T02:21:59.254Z,0
2017-10-11T02:23:11.817Z,0
2017-10-11T02:24:23.736Z,0
2017-10-11T02:25:35.983Z,0
2017-10-11T02:26:48.547Z,0
2017-10-11T02:28:00.799Z,0
2017-10-11T02:29:13.061Z,0
2017-10-11T02:30:25.307Z,0
2017-10-11T02:31:37.562Z,0
2017-10-11T02:32:50.132Z,0
2017-10-11T02:34:02.395Z,0
2017-10-11T02:35:14.304Z,0
2017-10-11T02:36:26.245Z,0
2017-10-11T02:37:38.164Z,0
2017-10-11T02:38:50.110Z,0
2017-10-11T02:40:02.674Z,0
2017-10-11T02:41:15.219Z,0
2017-10-11T02:42:27.464Z,0
2017-10-11T02:43:39.711Z,0
2017-10-11T02:44:51.986Z,0
2017-10-11T02:46:04.559Z,0
2017-10-11T02:47:17.147Z,0
2017-10-11T02:48:29.099Z,0
2017-10-11T02:49:41.366Z,0
2017-10-11T02:50:53.623Z,0
2017-10-11T02:52:05.888Z,0
2017-10-11T02:53:18.461Z,0
2017-10-11T02:54:30.381Z,0
2017-10-11T02:55:42.627Z,0
2017-10-11T02:56:55.196Z,0
2017-10-11T02:58:07.439Z,0
2017-10-11T02:59:19.703Z,0
2017-10-11T03:00:31.633Z,0
2017-10-11T03:01:44.195Z,0
2017-10-11T03:02:56.768Z,0
2017-10-11T03:04:09.336Z,0
2017-10-11T03:05:21.582Z,0
2017-10-11T03:06:33.511Z,0
2017-10-11T03:07:46.073Z,0
2017-10-11T03:08:58.320Z,0
2017-10-11T03:10:10.913Z,0
2017-10-11T03:11:23.161Z,0
2017-10-11T03:12:35.089Z,0
2017-10-11T03:13:47.326Z,0
2017-10-11T03:14:59.572Z,0
2017-10-11T03:16:11.817Z,0
2017-10-11T03:17:23.753Z,0
2017-10-11T03:18:35.692Z,0
2017-10-11T03:19:47.930Z,0
2017-10-11T03:21:00.175Z,0
2017-10-11T03:22:12.421Z,0
2017-10-11T03:23:24.992Z,0
2017-10-11T03:24:37.238Z,0
2017-10-11T03:25:49.807Z,0
2017-10-11T03:27:02.053Z,0
2017-10-11T03:28:14.300Z,0
2017-10-11T03:29:26.870Z,0
2017-10-11T03:30:39.445Z,0
2017-10-11T03:31:52.020Z,0
2017-10-11T03:33:04.257Z,0
2017-10-11T03:34:16.503Z,0
2017-10-11T03:35:28.431Z,0
2017-10-11T03:36:40.982Z,0
2017-10-11T03:37:53.239Z,0
2017-10-11T03:39:05.161Z,0
2017-10-11T03:40:17.412Z,0
2017-10-11T03:41:29.025Z,0
2017-10-11T03:42:40.954Z,0
2017-10-11T03:43:53.541Z,0
2017-10-11T03:45:05.764Z,0
2017-10-11T03:46:18.309Z,0
2017-10-11T03:47:30.880Z,0
2017-10-11T03:48:42.501Z,0
2017-10-11T03:49:54.429Z,0
2017-10-11T03:51:06.992Z,0
2017-10-11T03:52:19.562Z,0
2017-10-11T03:53:31.816Z,0
2017-10-11T03:54:44.053Z,0
2017-10-11T03:55:56.612Z,0
2017-10-11T03:57:09.453Z,0
2017-10-11T03:58:21.730Z,0
2017-10-11T03:59:33.661Z,0
2017-10-11T04:00:46.232Z,0
2017-10-11T04:01:58.792Z,0
2017-10-11T04:03:10.723Z,0
2017-10-11T04:04:23.294Z,0
2017-10-11T04:05:34.916Z,0
2017-10-11T04:06:47.161Z,0
2017-10-11T04:07:59.982Z,0
2017-10-11T04:09:12.235Z,0
2017-10-11T04:10:24.797Z,0
2017-10-11T04:11:37.043Z,0
2017-10-11T04:12:49.289Z,0
2017-10-11T04:14:01.542Z,0
2017-10-11T04:15:14.110Z,0
2017-10-11T04:16:25.725Z,0
2017-10-11T04:17:38.285Z,0
2017-10-11T04:18:50.567Z,0
2017-10-11T04:20:03.138Z,0
2017-10-11T04:21:14.758Z,0
2017-10-11T04:22:27.012Z,0
2017-10-11T04:23:39.575Z,0
2017-10-11T04:24:51.828Z,0
2017-10-11T04:26:03.766Z,0
2017-10-11T04:27:16.011Z,0
2017-10-11T04:28:28.257Z,0
2017-10-11T04:29:40.185Z,0
2017-10-11T04:30:51.806Z,0
2017-10-11T04:32:04.045Z,0
2017-10-11T04:33:16.315Z,0
2017-10-11T04:34:28.567Z,0
2017-10-11T04:35:41.082Z,0
2017-10-11T04:36:53.639Z,0
2017-10-11T04:38:05.897Z,0
2017-10-11T04:39:18.476Z,0
2017-10-11T04:40:31.276Z,0
2017-10-11T04:41:43.839Z,0
2017-10-11T04:42:56.105Z,0
2017-10-11T04:44:08.685Z,0
2017-10-11T04:45:20.921Z,0
2017-10-11T04:46:33.155Z,0
2017-10-11T04:47:45.738Z,0
2017-10-11T04:48:58.297Z,0
2017-10-11T04:50:10.238Z,0
2017-10-11T04:51:22.799Z,0
2017-10-11T04:52:35.053Z,0
2017-10-11T04:53:47.605Z,0
2017-10-11T04:55:00.187Z,0
2017-10-11T04:56:12.115Z,0
2017-10-11T04:57:24.378Z,0
2017-10-11T04:58:36.625Z,0
2017-10-11T04:59:48.892Z,4
2017-10-11T05:01:01.148Z,4
2017-10-11T05:02:13.745Z,0
2017-10-11T05:03:26.045Z,4
2017-10-11T05:04:37.677Z,4
2017-10-11T05:05:49.931Z,8
2017-10-11T05:07:02.169Z,8
2017-10-11T05:08:14.747Z,12
2017-10-11T05:09:26.992Z,16
2017-10-11T05:10:39.555Z,20
2017-10-11T05:11:51.801Z,20
2017-10-11T05:13:04.628Z,20
2017-10-11T05:14:16.892Z,24
2017-10-11T05:15:29.149Z,32
2017-10-11T05:16:41.393Z,44
2017-10-11T05:17:53.329Z,48
2017-10-11T05:19:05.575Z,56
2017-10-11T05:20:18.133Z,60
2017-10-11T05:21:30.690Z,68
2017-10-11T05:22:42.311Z,76
2017-10-11T05:23:54.808Z,92
2017-10-11T05:25:07.377Z,100
2017-10-11T05:26:19.936Z,116
2017-10-11T05:27:31.553Z,124
2017-10-11T05:28:43.499Z,132
2017-10-11T05:29:56.086Z,144
2017-10-11T05:31:08.332Z,148
2017-10-11T05:32:20.890Z,132
2017-10-11T05:33:32.823Z,132
2017-10-11T05:34:45.394Z,156
2017-10-11T05:35:57.952Z,196
2017-10-11T05:37:10.209Z,208
2017-10-11T05:38:22.830Z,228
2017-10-11T05:39:35.080Z,204
2017-10-11T05:40:47.345Z,228
2017-10-11T05:41:59.592Z,252
2017-10-11T05:43:12.163Z,304
2017-10-11T05:44:24.734Z,376
2017-10-11T05:45:36.991Z,500
2017-10-11T05:46:48.606Z,548
2017-10-11T05:48:01.170Z,680
2017-10-11T05:49:13.440Z,700
2017-10-11T05:50:26.011Z,712
2017-10-11T05:51:38.582Z,768
2017-10-11T05:52:51.152Z,900
2017-10-11T05:54:03.085Z,884
2017-10-11T05:55:15.327Z,892
2017-10-11T05:56:27.590Z,988
2017-10-11T05:57:39.835Z,1044
2017-10-11T05:58:52.089Z,1016
2017-10-11T06:00:04.651Z,1068
2017-10-11T06:01:17.223Z,1092
2017-10-11T06:02:29.142Z,1140
2017-10-11T06:03:41.388Z,1148
2017-10-11T06:04:53.960Z,1256
2017-10-11T06:06:06.536Z,1340
2017-10-11T06:07:19.099Z,1440
2017-10-11T06:08:31.353Z,1416
2017-10-11T06:09:43.300Z,1176
2017-10-11T06:10:55.562Z,1348
2017-10-11T06:12:07.818Z,1548
2017-10-11T06:13:20.067Z,1780
2017-10-11T06:14:32.632Z,1700
2017-10-11T06:15:44.879Z,1960
2017-10-11T06:16:57.116Z,2108
2017-10-11T06:18:09.674Z,2016
2017-10-11T06:19:21.932Z,1844
2017-10-11T06:20:34.185Z,1872
2017-10-11T06:21:46.780Z,2116
2017-10-11T06:22:59.043Z,2140
2017-10-11T06:24:10.964Z,2160
2017-10-11T06:25:23.211Z,2252
2017-10-11T06:26:35.781Z,2156
2017-10-11T06:27:48.359Z,1968
2017-10-11T06:29:00.622Z,2460
2017-10-11T06:30:12.868Z,2644
2017-10-11T06:31:24.789Z,2612
2017-10-11T06:32:37.034Z,2648
2017-10-11T06:33:49.280Z,2748
2017-10-11T06:35:01.851Z,2872
2017-10-11T06:36:14.096Z,3116
2017-10-11T06:37:26.693Z,3556
2017-10-11T06:38:38.937Z,4004
2017-10-11T06:39:51.185Z,4528
2017-10-11T06:41:03.128Z,4924
2017-10-11T06:42:15.698Z,5176
2017-10-11T06:43:27.947Z,5364
2017-10-11T06:44:40.191Z,5520
2017-10-11T06:45:52.761Z,5696
2017-10-11T06:47:05.015Z,6188
2017-10-11T06:48:16.635Z,6728
2017-10-11T06:49:28.905Z,7052
2017-10-11T06:50:40.844Z,7608
2017-10-11T06:51:53.418Z,8420
2017-10-11T06:53:05.360Z,9072
2017-10-11T06:54:17.931Z,9036
2017-10-11T06:55:30.489Z,8888
2017-10-11T06:56:42.747Z,8484
2017-10-11T06:57:54.992Z,8008
2017-10-11T06:59:06.921Z,7944
2017-10-11T07:00:19.492Z,7852
2017-10-11T07:01:31.356Z,7272
2017-10-11T07:02:43.610Z,6908
2017-10-11T07:03:56.172Z,6704
2017-10-11T07:05:08.099Z,6540
2017-10-11T07:06:20.352Z,6448
2017-10-11T07:07:32.940Z,6412
2017-10-11T07:08:45.178Z,6188
2017-10-11T07:09:57.742Z,5604
2017-10-11T07:11:10.319Z,5596
2017-10-11T07:12:22.266Z,5244
2017-10-11T07:13:34.836Z,4600
2017-10-11T07:14:47.081Z,4432
2017-10-11T07:15:59.655Z,4468
2017-10-11T07:17:11.906Z,3908
2017-10-11T07:18:24.494Z,3360
2017-10-11T07:19:37.069Z,4148
2017-10-11T07:20:49.352Z,4052
2017-10-11T07:22:01.937Z,3864
2017-10-11T07:23:14.755Z,3200
2017-10-11T07:24:27.330Z,2584
2017-10-11T07:25:39.594Z,2904
2017-10-11T07:26:51.827Z,3468
2017-10-11T07:28:03.435Z,3744
2017-10-11T07:29:16.005Z,3572
2017-10-11T07:30:27.933Z,3744
2017-10-11T07:31:40.185Z,3672
2017-10-11T07:32:52.117Z,3976
2017-10-11T07:34:04.040Z,4456
2017-10-11T07:35:16.608Z,4164
2017-10-11T07:36:29.177Z,4168
2017-10-11T07:37:41.752Z,4388
2017-10-11T07:38:54.320Z,5464
2017-10-11T07:40:06.890Z,7056
2017-10-11T07:41:19.136Z,7060
2017-10-11T07:42:31.432Z,7268
2017-10-11T07:43:43.361Z,6800
2017-10-11T07:44:55.958Z,6116
2017-10-11T07:46:08.519Z,5916
2017-10-11T07:47:20.464Z,6300
2017-10-11T07:48:32.715Z,6584
2017-10-11T07:49:45.280Z,6772
2017-10-11T07:50:57.835Z,7800
2017-10-11T07:52:10.111Z,8692
2017-10-11T07:53:22.694Z,9492
2017-10-11T07:54:35.264Z,10904
2017-10-11T07:55:47.834Z,10320
2017-10-11T07:57:00.088Z,8616
2017-10-11T07:58:12.351Z,7944
2017-10-11T07:59:24.595Z,9380
2017-10-11T08:00:36.842Z,10136
2017-10-11T08:01:49.412Z,9996
2017-10-11T08:03:01.358Z,10636
2017-10-11T08:04:13.286Z,11340
2017-10-11T08:05:25.228Z,13620
2017-10-11T08:06:37.494Z,14932
2017-10-11T08:07:49.748Z,12648
2017-10-11T08:09:02.011Z,9916
2017-10-11T08:10:14.268Z,8300
2017-10-11T08:11:26.853Z,7704
2017-10-11T08:12:39.433Z,8188
2017-10-11T08:13:51.684Z,8496
2017-10-11T08:15:04.264Z,8516
2017-10-11T08:16:16.184Z,8388
2017-10-11T08:17:28.756Z,9236
2017-10-11T08:18:40.361Z,9716
2017-10-11T08:19:52.947Z,7552
2017-10-11T08:21:05.525Z,6660
2017-10-11T08:22:18.087Z,13144
2017-10-11T08:23:29.692Z,10568
2017-10-11T08:24:42.255Z,5648
2017-10-11T08:25:54.814Z,7488
2017-10-11T08:27:07.071Z,7676
2017-10-11T08:28:19.631Z,9580
2017-10-11T08:29:32.200Z,10704
2017-10-11T08:30:44.464Z,9980
2017-10-11T08:31:56.428Z,12068
2017-10-11T08:33:08.687Z,10648
2017-10-11T08:34:20.619Z,12524
2017-10-11T08:35:32.865Z,11848
2017-10-11T08:36:44.794Z,14804
2017-10-11T08:37:57.057Z,15848
2017-10-11T08:39:09.287Z,14936
2017-10-11T08:40:21.548Z,14124
2017-10-11T08:41:33.183Z,15164
2017-10-11T08:42:45.440Z,15472
2017-10-11T08:43:57.692Z,16188
2017-10-11T08:45:09.955Z,18720
2017-10-11T08:46:22.526Z,19872
2017-10-11T08:47:34.772Z,19616
2017-10-11T08:48:46.700Z,18016
2017-10-11T08:49:59.263Z,19552
2017-10-11T08:51:11.508Z,20192
2017-10-11T08:52:24.069Z,21952
2017-10-11T08:53:36.005Z,21280
2017-10-11T08:54:48.255Z,15988
2017-10-11T08:56:00.517Z,18432
2017-10-11T08:57:13.087Z,17440
2017-10-11T08:58:25.042Z,13536
2017-10-11T08:59:37.310Z,13096
2017-10-11T09:00:49.811Z,16020
2017-10-11T09:02:02.383Z,16156
2017-10-11T09:03:14.969Z,15152
2017-10-11T09:04:26.910Z,11268
2017-10-11T09:05:39.166Z,10616
2017-10-11T09:06:51.102Z,9296
2017-10-11T09:08:03.037Z,8456
2017-10-11T09:09:15.300Z,8284
2017-10-11T09:10:27.864Z,9276
2017-10-11T09:11:40.098Z,7344
2017-10-11T09:12:52.359Z,5464
2017-10-11T09:14:04.610Z,5688
2017-10-11T09:15:17.181Z,7464
2017-10-11T09:16:29.743Z,8604
2017-10-11T09:17:41.995Z,8084
2017-10-11T09:18:53.934Z,6756
2017-10-11T09:20:06.509Z,5944
2017-10-11T09:21:18.760Z,9380
2017-10-11T09:22:31.347Z,10940
2017-10-11T09:23:43.927Z,9784
2017-10-11T09:24:55.862Z,6600
2017-10-11T09:26:08.117Z,5332
2017-10-11T09:27:20.678Z,7276
2017-10-11T09:28:33.250Z,10208
2017-10-11T09:29:45.826Z,9600
2017-10-11T09:30:58.065Z,8556
2017-10-11T09:32:10.636Z,6828
2017-10-11T09:33:22.247Z,7572
2017-10-11T09:34:34.503Z,7548
2017-10-11T09:35:46.747Z,6940
2017-10-11T09:36:59.001Z,6772
2017-10-11T09:38:11.263Z,7620
2017-10-11T09:39:23.538Z,7100
2017-10-11T09:40:36.104Z,7500
2017-10-11T09:41:48.675Z,8860
2017-10-11T09:43:00.605Z,11012
2017-10-11T09:44:13.192Z,13272
2017-10-11T09:45:25.766Z,11124
2017-10-11T09:46:38.034Z,9976
2017-10-11T09:47:50.605Z,13372
2017-10-11T09:49:03.175Z,13476
2017-10-11T09:50:15.746Z,12592
2017-10-11T09:51:28.016Z,12556
2017-10-11T09:52:40.594Z,13728
2017-10-11T09:53:52.833Z,14808
2017-10-11T09:55:05.414Z,15588
2017-10-11T09:56:17.657Z,12396
2017-10-11T09:57:29.595Z,10592
2017-10-11T09:58:42.173Z,10788
2017-10-11T09:59:54.411Z,10384
2017-10-11T10:01:07.006Z,9876
2017-10-11T10:02:18.951Z,9428
2017-10-11T10:03:31.522Z,7500
2017-10-11T10:04:44.094Z,8616
2017-10-11T10:05:56.676Z,9060
2017-10-11T10:07:08.609Z,10028
2017-10-11T10:08:21.181Z,7900
2017-10-11T10:09:33.126Z,5680
2017-10-11T10:10:45.361Z,6752
2017-10-11T10:11:57.621Z,7444
2017-10-11T10:13:10.194Z,6108
2017-10-11T10:14:22.458Z,5328
2017-10-11T10:15:34.730Z,5032
2017-10-11T10:16:47.308Z,4932
2017-10-11T10:17:59.555Z,5208
2017-10-11T10:19:12.116Z,5856
2017-10-11T10:20:24.369Z,6640
2017-10-11T10:21:36.308Z,7560
2017-10-11T10:22:48.254Z,6940
2017-10-11T10:24:00.828Z,7280
2017-10-11T10:25:13.384Z,5504
2017-10-11T10:26:25.966Z,4604
2017-10-11T10:27:37.911Z,4924
2017-10-11T10:28:50.465Z,5056
2017-10-11T10:30:03.026Z,5604
2017-10-11T10:31:14.999Z,6216
2017-10-11T10:32:27.567Z,7424
2017-10-11T10:33:39.813Z,8928
2017-10-11T10:34:51.760Z,9928
2017-10-11T10:36:04.013Z,9700
2017-10-11T10:37:16.576Z,10028
2017-10-11T10:38:29.447Z,13292
2017-10-11T10:39:42.017Z,14136
2017-10-11T10:40:54.251Z,13460
2017-10-11T10:42:06.834Z,13832
2017-10-11T10:43:19.404Z,13144
2017-10-11T10:44:31.962Z,13080
2017-10-11T10:45:44.512Z,9324
2017-10-11T10:46:57.090Z,8412
2017-10-11T10:48:09.662Z,11380
2017-10-11T10:49:21.916Z,13348
2017-10-11T10:50:34.503Z,13492
2017-10-11T10:51:47.061Z,12240
2017-10-11T10:52:59.628Z,10084
2017-10-11T10:54:11.890Z,9888
2017-10-11T10:55:24.143Z,10352
2017-10-11T10:56:36.081Z,9920
2017-10-11T10:57:48.326Z,10204
2017-10-11T10:59:00.898Z,12116
2017-10-11T11:00:12.828Z,13768
2017-10-11T11:01:25.439Z,14116
2017-10-11T11:02:38.010Z,14368
2017-10-11T11:03:50.583Z,11964
2017-10-11T11:05:02.833Z,11580
2017-10-11T11:06:15.104Z,10584
2017-10-11T11:07:27.679Z,8796
2017-10-11T11:08:40.238Z,7740
2017-10-11T11:09:52.797Z,6820
2017-10-11T11:11:05.055Z,6988
2017-10-11T11:12:17.625Z,8704
2017-10-11T11:13:29.878Z,9660
2017-10-11T11:14:42.442Z,10856
2017-10-11T11:15:55.012Z,12372
2017-10-11T11:17:06.939Z,14104
2017-10-11T11:18:19.186Z,17728
2017-10-11T11:19:31.449Z,17440
2017-10-11T11:20:43.720Z,14592
2017-10-11T11:21:55.976Z,12420
2017-10-11T11:23:08.536Z,12016
2017-10-11T11:24:20.789Z,12304
2017-10-11T11:25:33.364Z,13048
2017-10-11T11:26:45.981Z,12624
2017-10-11T11:27:57.918Z,12752
2017-10-11T11:29:10.497Z,13256
2017-10-11T11:30:23.085Z,13608
2017-10-11T11:31:35.655Z,13652
2017-10-11T11:32:47.576Z,14404
2017-10-11T11:33:59.822Z,14656
2017-10-11T11:35:12.391Z,13728
2017-10-11T11:36:24.642Z,11384
2017-10-11T11:37:37.219Z,8992
2017-10-11T11:38:49.803Z,7536
2017-10-11T11:40:02.050Z,7300
2017-10-11T11:41:13.978Z,7396
2017-10-11T11:42:25.915Z,8344
2017-10-11T11:43:38.187Z,7436
2017-10-11T11:44:49.807Z,6236
2017-10-11T11:46:02.379Z,5420
2017-10-11T11:47:14.963Z,6100
2017-10-11T11:48:27.544Z,7176
2017-10-11T11:49:40.116Z,7280
2017-10-11T11:50:52.398Z,8020
2017-10-11T11:52:04.657Z,6912
2017-10-11T11:53:17.227Z,6552
2017-10-11T11:54:29.797Z,6788
2017-10-11T11:55:42.369Z,5880
2017-10-11T11:56:54.603Z,5672
2017-10-11T11:58:07.193Z,6380
2017-10-11T11:59:19.130Z,7144
2017-10-11T12:00:31.701Z,7352
2017-10-11T12:01:44.272Z,11036
2017-10-11T12:02:56.842Z,9192
2017-10-11T12:04:09.425Z,8648
2017-10-11T12:05:21.358Z,6548
2017-10-11T12:06:33.604Z,6596
2017-10-11T12:07:45.233Z,6532
2017-10-11T12:08:57.495Z,5984
2017-10-11T12:10:09.751Z,6860
2017-10-11T12:11:22.345Z,8644
2017-10-11T12:12:34.941Z,8568
2017-10-11T12:13:47.585Z,8000
2017-10-11T12:14:59.850Z,8052
2017-10-11T12:16:11.770Z,6768
2017-10-11T12:17:24.014Z,6868
2017-10-11T12:18:35.961Z,4916
2017-10-11T12:19:48.208Z,4368
2017-10-11T12:21:00.452Z,4488
2017-10-11T12:22:12.730Z,3768
2017-10-11T12:23:25.304Z,3832
2017-10-11T12:24:37.903Z,4224
2017-10-11T12:25:50.168Z,7004
2017-10-11T12:27:02.405Z,8588
2017-10-11T12:28:14.357Z,7192
2017-10-11T12:29:26.933Z,5388
2017-10-11T12:30:39.517Z,6804
2017-10-11T12:31:52.121Z,9352
2017-10-11T12:33:04.693Z,8756
2017-10-11T12:34:16.955Z,6732
2017-10-11T12:35:28.900Z,5924
2017-10-11T12:36:41.480Z,8520
2017-10-11T12:37:54.341Z,10356
2017-10-11T12:39:06.594Z,7916
2017-10-11T12:40:19.182Z,5860
2017-10-11T12:41:31.753Z,6064
2017-10-11T12:42:44.331Z,7092
2017-10-11T12:43:56.258Z,8408
2017-10-11T12:45:08.848Z,7568
2017-10-11T12:46:21.086Z,10760
2017-10-11T12:47:33.014Z,9052
2017-10-11T12:48:45.266Z,6724
2017-10-11T12:49:57.848Z,6864
2017-10-11T12:51:09.768Z,11524
2017-10-11T12:52:21.698Z,15140
2017-10-11T12:53:34.317Z,14728
2017-10-11T12:54:46.554Z,14112
2017-10-11T12:55:58.483Z,13732
2017-10-11T12:57:10.396Z,13700
2017-10-11T12:58:22.967Z,14172
2017-10-11T12:59:35.213Z,14760
2017-10-11T13:00:47.791Z,14760
2017-10-11T13:02:00.364Z,14620
2017-10-11T13:03:12.958Z,14676
2017-10-11T13:04:25.531Z,14652
2017-10-11T13:05:37.791Z,15112
2017-10-11T13:06:50.344Z,15264
2017-10-11T13:08:02.932Z,14392
2017-10-11T13:09:15.177Z,14684
2017-10-11T13:10:27.449Z,14248
2017-10-11T13:11:39.043Z,12336
2017-10-11T13:12:51.619Z,9688
2017-10-11T13:14:04.185Z,8128
2017-10-11T13:15:16.438Z,10048
2017-10-11T13:16:28.702Z,8380
2017-10-11T13:17:41.272Z,10456
2017-10-11T13:18:53.831Z,13784
2017-10-11T13:20:05.771Z,13644
2017-10-11T13:21:18.022Z,13092
2017-10-11T13:22:29.962Z,13520
2017-10-11T13:23:41.908Z,12584
2017-10-11T13:24:53.853Z,11408
2017-10-11T13:26:06.424Z,9652
2017-10-11T13:27:18.366Z,9280
2017-10-11T13:28:30.933Z,9312
2017-10-11T13:29:43.504Z,9560
2017-10-11T13:30:55.750Z,9616
2017-10-11T13:32:08.321Z,9648
2017-10-11T13:33:20.890Z,9712
2017-10-11T13:34:32.820Z,9660
2017-10-11T13:35:45.389Z,9724
2017-10-11T13:36:57.328Z,9864
2017-10-11T13:38:09.562Z,9516
2017-10-11T13:39:22.151Z,9180
2017-10-11T13:40:34.110Z,7868
2017-10-11T13:41:46.360Z,6596
2017-10-11T13:42:58.613Z,6860
2017-10-11T13:44:10.533Z,6508
2017-10-11T13:45:22.805Z,5764
2017-10-11T13:46:35.377Z,4168
2017-10-11T13:47:47.963Z,4328
2017-10-11T13:48:59.884Z,4224
2017-10-11T13:50:11.480Z,3176
2017-10-11T13:51:23.751Z,3680
2017-10-11T13:52:36.348Z,3800
2017-10-11T13:53:48.942Z,3324
2017-10-11T13:55:00.887Z,2612
2017-10-11T13:56:12.834Z,3060
2017-10-11T13:57:25.086Z,4112
2017-10-11T13:58:36.706Z,3336
2017-10-11T13:59:48.954Z,3660
2017-10-11T14:01:01.523Z,3616
2017-10-11T14:02:13.795Z,3088
2017-10-11T14:03:26.039Z,3124
2017-10-11T14:04:38.286Z,3056
2017-10-11T14:05:50.877Z,2288
2017-10-11T14:07:03.451Z,2332
2017-10-11T14:08:15.390Z,2216
2017-10-11T14:09:27.971Z,1732
2017-10-11T14:10:40.540Z,2772
2017-10-11T14:11:53.112Z,2956
2017-10-11T14:13:05.371Z,3056
2017-10-11T14:14:17.943Z,3076
2017-10-11T14:15:30.189Z,3580
2017-10-11T14:16:42.441Z,2880
2017-10-11T14:17:54.708Z,2520
2017-10-11T14:19:07.275Z,3212
2017-10-11T14:20:19.859Z,3360
2017-10-11T14:21:32.441Z,3388
2017-10-11T14:22:44.688Z,3280
2017-10-11T14:23:56.615Z,2904
2017-10-11T14:25:08.886Z,2664
2017-10-11T14:26:21.475Z,2764
2017-10-11T14:27:33.720Z,2376
2017-10-11T14:28:46.292Z,1908
2017-10-11T14:29:58.544Z,1772
2017-10-11T14:31:10.815Z,1964
2017-10-11T14:32:23.060Z,1972
2017-10-11T14:33:35.323Z,2808
2017-10-11T14:34:47.901Z,2680
2017-10-11T14:35:59.847Z,2608
2017-10-11T14:37:11.469Z,2984
2017-10-11T14:38:24.056Z,2548
2017-10-11T14:39:36.626Z,2456
2017-10-11T14:40:48.898Z,2412
2017-10-11T14:42:01.468Z,2476
2017-10-11T14:43:13.098Z,2720
2017-10-11T14:44:25.359Z,2528
2017-10-11T14:45:37.611Z,3008
2017-10-11T14:46:50.200Z,3540
2017-10-11T14:48:02.446Z,4256
2017-10-11T14:49:14.713Z,5532
2017-10-11T14:50:27.288Z,5596
2017-10-11T14:51:39.860Z,5408
2017-10-11T14:52:52.104Z,5008
2017-10-11T14:54:04.035Z,4572
2017-10-11T14:55:15.972Z,4148
2017-10-11T14:56:28.224Z,3728
2017-10-11T14:57:40.794Z,3424
2017-10-11T14:58:52.731Z,3112
2017-10-11T15:00:04.978Z,2668
2017-10-11T15:01:17.231Z,2448
2017-10-11T15:02:29.476Z,3092
2017-10-11T15:03:41.428Z,3636
2017-10-11T15:04:53.696Z,3400
2017-10-11T15:06:05.938Z,3024
2017-10-11T15:07:18.501Z,2868
2017-10-11T15:08:31.071Z,2784
2017-10-11T15:09:43.637Z,2568
2017-10-11T15:10:55.564Z,2536
2017-10-11T15:12:08.134Z,2660
2017-10-11T15:13:20.105Z,2744
2017-10-11T15:14:32.378Z,2724
2017-10-11T15:15:44.609Z,2708
2017-10-11T15:16:56.224Z,2660
2017-10-11T15:18:08.471Z,2504
2017-10-11T15:19:20.743Z,2472
2017-10-11T15:20:33.312Z,2716
2017-10-11T15:21:44.910Z,2748
2017-10-11T15:22:57.471Z,3040
2017-10-11T15:24:10.051Z,3168
2017-10-11T15:25:22.318Z,2924
2017-10-11T15:26:34.887Z,2708
2017-10-11T15:27:47.137Z,2952
2017-10-11T15:28:59.073Z,3144
2017-10-11T15:30:11.319Z,3068
2017-10-11T15:31:23.890Z,2840
2017-10-11T15:32:36.486Z,2504
2017-10-11T15:33:49.065Z,2336
2017-10-11T15:35:01.627Z,2184
2017-10-11T15:36:14.198Z,1964
2017-10-11T15:37:26.454Z,1724
2017-10-11T15:38:38.374Z,1464
2017-10-11T15:39:50.644Z,1280
2017-10-11T15:41:02.905Z,1164
2017-10-11T15:42:15.476Z,1180
2017-10-11T15:43:28.046Z,1188
2017-10-11T15:44:40.616Z,1172
2017-10-11T15:45:53.187Z,1248
2017-10-11T15:47:05.783Z,1108
2017-10-11T15:48:17.403Z,1216
2017-10-11T15:49:29.652Z,1240
2017-10-11T15:50:42.221Z,1208
2017-10-11T15:51:54.790Z,1096
2017-10-11T15:53:07.036Z,984
2017-10-11T15:54:19.607Z,904
2017-10-11T15:55:32.178Z,876
2017-10-11T15:56:44.755Z,856
2017-10-11T15:57:57.331Z,796
2017-10-11T15:59:09.264Z,764
2017-10-11T16:00:21.847Z,704
2017-10-11T16:01:33.788Z,636
2017-10-11T16:02:46.052Z,568
2017-10-11T16:03:58.304Z,504
2017-10-11T16:05:10.868Z,460
2017-10-11T16:06:23.439Z,444
2017-10-11T16:07:36.010Z,424
2017-10-11T16:08:48.255Z,408
2017-10-11T16:10:00.825Z,392
2017-10-11T16:11:12.753Z,368
2017-10-11T16:12:25.005Z,340
2017-10-11T16:13:37.262Z,304
2017-10-11T16:14:49.833Z,248
2017-10-11T16:16:02.086Z,204
2017-10-11T16:17:14.032Z,184
2017-10-11T16:18:26.620Z,180
2017-10-11T16:19:38.574Z,164
2017-10-11T16:20:51.135Z,156
2017-10-11T16:22:02.756Z,152
2017-10-11T16:23:14.686Z,136
2017-10-11T16:24:27.249Z,124
2017-10-11T16:25:39.502Z,100
2017-10-11T16:26:51.766Z,80
2017-10-11T16:28:04.018Z,60
2017-10-11T16:29:16.614Z,44
2017-10-11T16:30:29.176Z,36
2017-10-11T16:31:41.429Z,32